sensor_id;sensor_type;location;lat;lon;timestamp;temperature;humidity
40660;DHT22;26753;45.544;9.232;2023-11-21T00:01:54;13.20;99.90
40660;DHT22;26753;45.544;9.232;2023-11-21T00:04:20;13.40;99.90
40660;DHT22;26753;45.544;9.232;2023-11-21T00:06:46;13.30;99.90
40660;DHT22;26753;45.544;9.232;2023-11-21T00:09:13;13.00;99.90
40660;DHT22;26753;45.544;9.232;2023-11-21T00:11:41;13.10;99.90
40660;DHT22;26753;45.544;9.232;2023-11-21T00:16:34;13.50;99.90
40660;DHT22;26753;45.544;9.232;2023-11-21T00:18:59;13.10;99.90
40660;DHT22;26753;45.544;9.232;2023-11-21T00:21:25;10.80;99.90
40660;DHT22;26753;45.544;9.232;2023-11-21T00:23:51;13.90;99.90
40660;DHT22;26753;45.544;9.232;2023-11-21T00:26:17;13.90;99.90
40660;DHT22;26753;45.544;9.232;2023-11-21T00:28:42;13.80;99.90
40660;DHT22;26753;45.544;9.232;2023-11-21T00:31:08;13.00;99.90
40660;DHT22;26753;45.544;9.232;2023-11-21T00:33:34;13.20;99.90
40660;DHT22;26753;45.544;9.232;2023-11-21T00:35:59;13.80;99.90
40660;DHT22;26753;45.544;9.232;2023-11-21T00:38:26;13.10;99.90
40660;DHT22;26753;45.544;9.232;2023-11-21T00:40:52;12.60;99.90
40660;DHT22;26753;45.544;9.232;2023-11-21T00:43:22;12.20;99.90
40660;DHT22;26753;45.544;9.232;2023-11-21T00:45:48;14.20;99.90
40660;DHT22;26753;45.544;9.232;2023-11-21T00:48:14;13.70;99.90
40660;DHT22;26753;45.544;9.232;2023-11-21T00:50:40;12.30;99.90
40660;DHT22;26753;45.544;9.232;2023-11-21T00:53:06;13.00;99.90
40660;DHT22;26753;45.544;9.232;2023-11-21T00:55:33;12.00;99.90
40660;DHT22;26753;45.544;9.232;2023-11-21T00:58:00;13.10;99.90
40660;DHT22;26753;45.544;9.232;2023-11-21T01:00:26;12.80;99.90
40660;DHT22;26753;45.544;9.232;2023-11-21T01:02:51;13.40;99.90
40660;DHT22;26753;45.544;9.232;2023-11-21T01:05:17;12.30;99.90
40660;DHT22;26753;45.544;9.232;2023-11-21T01:07:45;14.10;99.90
40660;DHT22;26753;45.544;9.232;2023-11-21T01:10:11;14.10;99.90
40660;DHT22;26753;45.544;9.232;2023-11-21T01:12:37;13.20;99.90
40660;DHT22;26753;45.544;9.232;2023-11-21T01:15:05;14.00;99.90
40660;DHT22;26753;45.544;9.232;2023-11-21T01:17:33;11.20;99.90
40660;DHT22;26753;45.544;9.232;2023-11-21T01:20:00;12.60;99.90
40660;DHT22;26753;45.544;9.232;2023-11-21T01:22:26;12.10;99.90
40660;DHT22;26753;45.544;9.232;2023-11-21T01:24:53;12.00;99.90
40660;DHT22;26753;45.544;9.232;2023-11-21T01:27:19;12.80;99.90
40660;DHT22;26753;45.544;9.232;2023-11-21T01:29:45;13.90;99.90
40660;DHT22;26753;45.544;9.232;2023-11-21T01:32:10;14.70;99.90
40660;DHT22;26753;45.544;9.232;2023-11-21T01:34:36;13.70;99.90
40660;DHT22;26753;45.544;9.232;2023-11-21T01:37:02;15.30;99.90
40660;DHT22;26753;45.544;9.232;2023-11-21T01:39:30;12.60;99.90
40660;DHT22;26753;45.544;9.232;2023-11-21T01:41:57;13.40;99.90
40660;DHT22;26753;45.544;9.232;2023-11-21T01:44:26;15.20;99.90
40660;DHT22;26753;45.544;9.232;2023-11-21T01:46:52;13.10;99.90
40660;DHT22;26753;45.544;9.232;2023-11-21T01:49:19;11.60;99.90
40660;DHT22;26753;45.544;9.232;2023-11-21T01:51:47;12.30;99.90
40660;DHT22;26753;45.544;9.232;2023-11-21T01:54:15;10.90;99.90
40660;DHT22;26753;45.544;9.232;2023-11-21T01:56:43;12.80;99.90
40660;DHT22;26753;45.544;9.232;2023-11-21T02:01:37;11.80;99.90
40660;DHT22;26753;45.544;9.232;2023-11-21T02:04:03;14.10;99.90
40660;DHT22;26753;45.544;9.232;2023-11-21T02:06:28;13.80;99.90
40660;DHT22;26753;45.544;9.232;2023-11-21T02:08:57;12.80;99.90
40660;DHT22;26753;45.544;9.232;2023-11-21T02:11:22;14.70;99.90
40660;DHT22;26753;45.544;9.232;2023-11-21T02:13:49;13.90;99.90
40660;DHT22;26753;45.544;9.232;2023-11-21T02:16:15;14.00;99.90
40660;DHT22;26753;45.544;9.232;2023-11-21T02:18:41;12.40;99.90
40660;DHT22;26753;45.544;9.232;2023-11-21T02:23:35;12.60;99.90
40660;DHT22;26753;45.544;9.232;2023-11-21T02:26:01;12.00;99.90
40660;DHT22;26753;45.544;9.232;2023-11-21T02:28:29;14.50;99.90
40660;DHT22;26753;45.544;9.232;2023-11-21T02:30:55;14.00;99.90
40660;DHT22;26753;45.544;9.232;2023-11-21T02:33:22;12.60;99.90
40660;DHT22;26753;45.544;9.232;2023-11-21T02:35:48;13.10;99.90
40660;DHT22;26753;45.544;9.232;2023-11-21T02:38:13;12.60;99.90
40660;DHT22;26753;45.544;9.232;2023-11-21T02:40:39;13.60;99.90
40660;DHT22;26753;45.544;9.232;2023-11-21T02:45:31;12.00;99.90
40660;DHT22;26753;45.544;9.232;2023-11-21T02:47:57;13.30;99.90
40660;DHT22;26753;45.544;9.232;2023-11-21T02:50:23;14.50;99.90
40660;DHT22;26753;45.544;9.232;2023-11-21T02:52:49;14.10;99.90
40660;DHT22;26753;45.544;9.232;2023-11-21T02:55:15;13.20;99.90
40660;DHT22;26753;45.544;9.232;2023-11-21T02:57:41;12.40;99.90
40660;DHT22;26753;45.544;9.232;2023-11-21T03:00:07;12.20;99.90
40660;DHT22;26753;45.544;9.232;2023-11-21T03:02:34;12.90;99.90
40660;DHT22;26753;45.544;9.232;2023-11-21T03:05:05;14.60;99.90
40660;DHT22;26753;45.544;9.232;2023-11-21T03:07:30;13.60;99.90
40660;DHT22;26753;45.544;9.232;2023-11-21T03:09:56;14.60;99.90
40660;DHT22;26753;45.544;9.232;2023-11-21T03:12:22;14.10;99.90
40660;DHT22;26753;45.544;9.232;2023-11-21T03:14:47;12.80;99.90
40660;DHT22;26753;45.544;9.232;2023-11-21T03:17:13;13.00;99.90
40660;DHT22;26753;45.544;9.232;2023-11-21T03:19:41;14.80;99.90
40660;DHT22;26753;45.544;9.232;2023-11-21T03:22:07;13.30;99.90
40660;DHT22;26753;45.544;9.232;2023-11-21T03:24:34;13.80;99.90
40660;DHT22;26753;45.544;9.232;2023-11-21T03:27:00;12.30;99.90
40660;DHT22;26753;45.544;9.232;2023-11-21T03:29:26;14.50;99.90
40660;DHT22;26753;45.544;9.232;2023-11-21T03:31:51;12.60;99.90
40660;DHT22;26753;45.544;9.232;2023-11-21T03:34:26;12.40;99.90
40660;DHT22;26753;45.544;9.232;2023-11-21T03:36:52;13.00;99.90
40660;DHT22;26753;45.544;9.232;2023-11-21T03:39:20;13.00;99.90
40660;DHT22;26753;45.544;9.232;2023-11-21T03:41:46;13.60;99.90
40660;DHT22;26753;45.544;9.232;2023-11-21T03:44:12;14.20;99.90
40660;DHT22;26753;45.544;9.232;2023-11-21T03:46:38;12.70;99.90
40660;DHT22;26753;45.544;9.232;2023-11-21T03:49:03;12.90;99.90
40660;DHT22;26753;45.544;9.232;2023-11-21T03:51:29;13.10;99.90
40660;DHT22;26753;45.544;9.232;2023-11-21T03:56:21;12.30;99.90
40660;DHT22;26753;45.544;9.232;2023-11-21T03:58:49;13.70;99.90
40660;DHT22;26753;45.544;9.232;2023-11-21T04:01:24;12.30;99.90
40660;DHT22;26753;45.544;9.232;2023-11-21T04:03:50;13.50;99.90
40660;DHT22;26753;45.544;9.232;2023-11-21T04:06:17;12.40;99.90
40660;DHT22;26753;45.544;9.232;2023-11-21T04:08:44;12.20;99.90
40660;DHT22;26753;45.544;9.232;2023-11-21T04:11:10;13.40;99.90
40660;DHT22;26753;45.544;9.232;2023-11-21T04:13:40;12.90;99.90
40660;DHT22;26753;45.544;9.232;2023-11-21T04:16:07;14.30;99.90
40660;DHT22;26753;45.544;9.232;2023-11-21T04:18:33;12.50;99.90
40660;DHT22;26753;45.544;9.232;2023-11-21T04:20:59;13.10;99.90
40660;DHT22;26753;45.544;9.232;2023-11-21T04:23:25;11.60;99.90
40660;DHT22;26753;45.544;9.232;2023-11-21T04:25:51;13.50;99.90
40660;DHT22;26753;45.544;9.232;2023-11-21T04:28:19;12.20;99.90
40660;DHT22;26753;45.544;9.232;2023-11-21T04:30:45;14.20;99.90
40660;DHT22;26753;45.544;9.232;2023-11-21T04:33:11;11.60;99.90
40660;DHT22;26753;45.544;9.232;2023-11-21T04:35:36;11.50;99.90
40660;DHT22;26753;45.544;9.232;2023-11-21T04:38:02;14.30;99.90
40660;DHT22;26753;45.544;9.232;2023-11-21T04:40:28;12.60;99.90
40660;DHT22;26753;45.544;9.232;2023-11-21T04:42:54;13.20;99.90
40660;DHT22;26753;45.544;9.232;2023-11-21T04:45:19;11.90;99.90
40660;DHT22;26753;45.544;9.232;2023-11-21T04:47:45;13.40;99.90
40660;DHT22;26753;45.544;9.232;2023-11-21T04:50:11;13.30;99.90
40660;DHT22;26753;45.544;9.232;2023-11-21T04:52:36;12.50;99.90
40660;DHT22;26753;45.544;9.232;2023-11-21T04:55:02;13.50;99.90
40660;DHT22;26753;45.544;9.232;2023-11-21T04:59:54;11.50;99.90
40660;DHT22;26753;45.544;9.232;2023-11-21T05:02:20;13.30;99.90
40660;DHT22;26753;45.544;9.232;2023-11-21T05:07:13;13.10;99.90
40660;DHT22;26753;45.544;9.232;2023-11-21T05:09:45;12.70;99.90
40660;DHT22;26753;45.544;9.232;2023-11-21T05:12:12;14.30;99.90
40660;DHT22;26753;45.544;9.232;2023-11-21T05:17:04;12.70;99.90
40660;DHT22;26753;45.544;9.232;2023-11-21T05:19:30;13.50;99.90
40660;DHT22;26753;45.544;9.232;2023-11-21T05:21:55;12.70;99.90
40660;DHT22;26753;45.544;9.232;2023-11-21T05:24:21;10.90;99.90
40660;DHT22;26753;45.544;9.232;2023-11-21T05:26:47;11.30;99.90
40660;DHT22;26753;45.544;9.232;2023-11-21T05:31:41;14.80;99.90
40660;DHT22;26753;45.544;9.232;2023-11-21T05:34:07;13.50;99.90
40660;DHT22;26753;45.544;9.232;2023-11-21T05:38:59;11.70;99.90
40660;DHT22;26753;45.544;9.232;2023-11-21T05:41:24;11.70;99.90
40660;DHT22;26753;45.544;9.232;2023-11-21T05:43:51;11.50;99.90
40660;DHT22;26753;45.544;9.232;2023-11-21T05:48:43;14.00;99.90
40660;DHT22;26753;45.544;9.232;2023-11-21T05:51:09;12.80;99.90
40660;DHT22;26753;45.544;9.232;2023-11-21T05:53:37;13.20;99.90
40660;DHT22;26753;45.544;9.232;2023-11-21T05:56:03;11.10;99.90
40660;DHT22;26753;45.544;9.232;2023-11-21T06:00:55;11.30;99.90
40660;DHT22;26753;45.544;9.232;2023-11-21T06:05:48;15.20;99.90
40660;DHT22;26753;45.544;9.232;2023-11-21T06:08:14;12.40;99.90
40660;DHT22;26753;45.544;9.232;2023-11-21T06:10:42;12.30;99.90
40660;DHT22;26753;45.544;9.232;2023-11-21T06:13:09;12.50;99.90
40660;DHT22;26753;45.544;9.232;2023-11-21T06:15:36;12.50;99.90
40660;DHT22;26753;45.544;9.232;2023-11-21T06:18:01;14.00;99.90
40660;DHT22;26753;45.544;9.232;2023-11-21T06:20:27;11.10;99.90
40660;DHT22;26753;45.544;9.232;2023-11-21T06:22:53;13.40;99.90
40660;DHT22;26753;45.544;9.232;2023-11-21T06:25:19;13.60;99.90
40660;DHT22;26753;45.544;9.232;2023-11-21T06:27:46;12.70;99.90
40660;DHT22;26753;45.544;9.232;2023-11-21T06:30:15;13.80;99.90
40660;DHT22;26753;45.544;9.232;2023-11-21T06:32:42;12.90;99.90
40660;DHT22;26753;45.544;9.232;2023-11-21T06:35:11;12.40;99.90
40660;DHT22;26753;45.544;9.232;2023-11-21T06:37:37;13.10;99.90
40660;DHT22;26753;45.544;9.232;2023-11-21T06:42:30;13.40;99.90
40660;DHT22;26753;45.544;9.232;2023-11-21T06:47:23;12.70;99.90
40660;DHT22;26753;45.544;9.232;2023-11-21T06:49:52;13.30;99.90
40660;DHT22;26753;45.544;9.232;2023-11-21T06:52:18;12.90;99.90
40660;DHT22;26753;45.544;9.232;2023-11-21T06:54:44;14.70;99.90
40660;DHT22;26753;45.544;9.232;2023-11-21T06:57:11;14.10;99.90
40660;DHT22;26753;45.544;9.232;2023-11-21T06:59:37;12.50;99.90
40660;DHT22;26753;45.544;9.232;2023-11-21T07:02:03;13.40;99.90
40660;DHT22;26753;45.544;9.232;2023-11-21T07:04:34;12.60;99.90
40660;DHT22;26753;45.544;9.232;2023-11-21T07:07:02;12.70;99.90
40660;DHT22;26753;45.544;9.232;2023-11-21T07:11:55;11.90;99.90
40660;DHT22;26753;45.544;9.232;2023-11-21T07:14:21;12.10;99.90
40660;DHT22;26753;45.544;9.232;2023-11-21T07:16:47;12.90;99.90
40660;DHT22;26753;45.544;9.232;2023-11-21T07:21:39;12.00;99.90
40660;DHT22;26753;45.544;9.232;2023-11-21T07:24:06;14.10;99.90
40660;DHT22;26753;45.544;9.232;2023-11-21T07:28:59;11.30;99.90
40660;DHT22;26753;45.544;9.232;2023-11-21T07:31:25;13.80;99.90
40660;DHT22;26753;45.544;9.232;2023-11-21T07:33:51;11.90;99.90
40660;DHT22;26753;45.544;9.232;2023-11-21T07:36:18;13.90;99.90
40660;DHT22;26753;45.544;9.232;2023-11-21T07:38:44;12.80;99.90
40660;DHT22;26753;45.544;9.232;2023-11-21T07:41:10;11.90;99.90
40660;DHT22;26753;45.544;9.232;2023-11-21T07:43:36;13.30;99.90
40660;DHT22;26753;45.544;9.232;2023-11-21T07:46:03;11.30;99.90
40660;DHT22;26753;45.544;9.232;2023-11-21T07:48:33;12.40;99.90
40660;DHT22;26753;45.544;9.232;2023-11-21T07:53:25;14.10;99.90
40660;DHT22;26753;45.544;9.232;2023-11-21T07:55:55;11.60;99.90
40660;DHT22;26753;45.544;9.232;2023-11-21T07:58:21;13.80;99.90
40660;DHT22;26753;45.544;9.232;2023-11-21T08:00:47;12.50;99.90
40660;DHT22;26753;45.544;9.232;2023-11-21T08:03:13;12.50;99.90
40660;DHT22;26753;45.544;9.232;2023-11-21T08:05:39;12.50;99.90
40660;DHT22;26753;45.544;9.232;2023-11-21T08:08:05;13.20;99.90
40660;DHT22;26753;45.544;9.232;2023-11-21T08:10:31;12.60;99.90
40660;DHT22;26753;45.544;9.232;2023-11-21T08:12:57;14.60;99.90
40660;DHT22;26753;45.544;9.232;2023-11-21T08:15:23;13.00;99.90
40660;DHT22;26753;45.544;9.232;2023-11-21T08:17:49;11.60;99.90
40660;DHT22;26753;45.544;9.232;2023-11-21T08:20:15;13.30;99.90
40660;DHT22;26753;45.544;9.232;2023-11-21T08:22:42;14.40;99.90
40660;DHT22;26753;45.544;9.232;2023-11-21T08:25:08;13.80;99.90
40660;DHT22;26753;45.544;9.232;2023-11-21T08:27:34;11.50;99.90
40660;DHT22;26753;45.544;9.232;2023-11-21T08:30:01;13.10;99.90
40660;DHT22;26753;45.544;9.232;2023-11-21T08:32:26;15.30;99.90
40660;DHT22;26753;45.544;9.232;2023-11-21T08:34:52;13.40;99.90
40660;DHT22;26753;45.544;9.232;2023-11-21T08:37:18;14.60;99.90
40660;DHT22;26753;45.544;9.232;2023-11-21T08:39:44;15.40;99.90
40660;DHT22;26753;45.544;9.232;2023-11-21T08:42:10;12.00;99.90
40660;DHT22;26753;45.544;9.232;2023-11-21T08:44:35;11.90;99.90
40660;DHT22;26753;45.544;9.232;2023-11-21T08:47:01;13.20;99.90
40660;DHT22;26753;45.544;9.232;2023-11-21T08:51:55;13.50;99.90
40660;DHT22;26753;45.544;9.232;2023-11-21T08:54:21;13.80;99.90
40660;DHT22;26753;45.544;9.232;2023-11-21T08:56:47;13.10;99.90
40660;DHT22;26753;45.544;9.232;2023-11-21T08:59:15;12.80;99.90
40660;DHT22;26753;45.544;9.232;2023-11-21T09:01:41;14.20;99.90
40660;DHT22;26753;45.544;9.232;2023-11-21T09:04:07;14.20;99.90
40660;DHT22;26753;45.544;9.232;2023-11-21T09:06:33;14.20;99.90
40660;DHT22;26753;45.544;9.232;2023-11-21T09:08:59;14.40;99.90
40660;DHT22;26753;45.544;9.232;2023-11-21T09:11:25;13.60;99.90
40660;DHT22;26753;45.544;9.232;2023-11-21T09:13:52;15.10;99.90
40660;DHT22;26753;45.544;9.232;2023-11-21T09:16:19;13.60;99.90
40660;DHT22;26753;45.544;9.232;2023-11-21T09:18:45;15.40;99.90
40660;DHT22;26753;45.544;9.232;2023-11-21T09:21:11;14.00;99.90
40660;DHT22;26753;45.544;9.232;2023-11-21T09:23:37;13.70;99.90
40660;DHT22;26753;45.544;9.232;2023-11-21T09:26:03;14.30;99.90
40660;DHT22;26753;45.544;9.232;2023-11-21T09:28:29;13.60;99.90
40660;DHT22;26753;45.544;9.232;2023-11-21T09:30:54;12.90;99.90
40660;DHT22;26753;45.544;9.232;2023-11-21T09:33:20;15.50;99.90
40660;DHT22;26753;45.544;9.232;2023-11-21T09:35:48;16.20;99.90
40660;DHT22;26753;45.544;9.232;2023-11-21T09:38:15;15.80;99.90
40660;DHT22;26753;45.544;9.232;2023-11-21T09:40:40;16.00;99.90
40660;DHT22;26753;45.544;9.232;2023-11-21T09:43:09;18.30;99.90
40660;DHT22;26753;45.544;9.232;2023-11-21T09:45:51;15.00;99.90
40660;DHT22;26753;45.544;9.232;2023-11-21T09:50:48;15.20;99.90
40660;DHT22;26753;45.544;9.232;2023-11-21T09:53:20;15.10;99.90
40660;DHT22;26753;45.544;9.232;2023-11-21T09:55:53;16.60;99.90
40660;DHT22;26753;45.544;9.232;2023-11-21T09:58:20;15.50;99.90
40660;DHT22;26753;45.544;9.232;2023-11-21T10:00:53;14.90;99.90
40660;DHT22;26753;45.544;9.232;2023-11-21T10:03:19;17.00;99.90
40660;DHT22;26753;45.544;9.232;2023-11-21T10:05:47;15.80;99.90
40660;DHT22;26753;45.544;9.232;2023-11-21T10:08:15;15.30;99.90
40660;DHT22;26753;45.544;9.232;2023-11-21T10:10:46;15.80;99.90
40660;DHT22;26753;45.544;9.232;2023-11-21T10:13:13;16.10;99.90
40660;DHT22;26753;45.544;9.232;2023-11-21T10:15:42;16.20;99.90
40660;DHT22;26753;45.544;9.232;2023-11-21T10:18:14;16.00;99.90
40660;DHT22;26753;45.544;9.232;2023-11-21T10:20:44;16.70;99.90
40660;DHT22;26753;45.544;9.232;2023-11-21T10:23:21;16.20;99.90
40660;DHT22;26753;45.544;9.232;2023-11-21T10:25:47;15.20;99.90
40660;DHT22;26753;45.544;9.232;2023-11-21T10:28:15;16.30;99.90
40660;DHT22;26753;45.544;9.232;2023-11-21T10:30:41;16.40;99.90
40660;DHT22;26753;45.544;9.232;2023-11-21T10:33:07;17.20;99.90
40660;DHT22;26753;45.544;9.232;2023-11-21T10:35:44;16.80;99.90
40660;DHT22;26753;45.544;9.232;2023-11-21T10:38:21;16.60;99.90
40660;DHT22;26753;45.544;9.232;2023-11-21T10:40:50;16.40;99.90
40660;DHT22;26753;45.544;9.232;2023-11-21T10:43:17;16.10;99.90
40660;DHT22;26753;45.544;9.232;2023-11-21T10:45:44;16.30;99.90
40660;DHT22;26753;45.544;9.232;2023-11-21T10:48:14;16.50;99.90
40660;DHT22;26753;45.544;9.232;2023-11-21T10:50:46;16.90;99.90
40660;DHT22;26753;45.544;9.232;2023-11-21T10:53:12;17.20;99.90
40660;DHT22;26753;45.544;9.232;2023-11-21T10:55:38;17.40;99.90
40660;DHT22;26753;45.544;9.232;2023-11-21T10:58:05;17.80;99.90
40660;DHT22;26753;45.544;9.232;2023-11-21T11:00:32;18.00;99.90
40660;DHT22;26753;45.544;9.232;2023-11-21T11:02:59;18.20;99.90
40660;DHT22;26753;45.544;9.232;2023-11-21T11:05:27;18.40;99.90
40660;DHT22;26753;45.544;9.232;2023-11-21T11:08:05;18.40;99.90
40660;DHT22;26753;45.544;9.232;2023-11-21T11:10:31;18.60;99.90
40660;DHT22;26753;45.544;9.232;2023-11-21T11:12:58;18.90;99.90
40660;DHT22;26753;45.544;9.232;2023-11-21T11:15:25;19.00;99.90
40660;DHT22;26753;45.544;9.232;2023-11-21T11:17:52;18.90;99.90
40660;DHT22;26753;45.544;9.232;2023-11-21T11:20:23;18.90;99.90
40660;DHT22;26753;45.544;9.232;2023-11-21T11:25:50;19.00;99.90
40660;DHT22;26753;45.544;9.232;2023-11-21T11:28:27;19.10;99.90
40660;DHT22;26753;45.544;9.232;2023-11-21T11:31:26;19.30;99.90
40660;DHT22;26753;45.544;9.232;2023-11-21T11:34:16;19.50;99.90
40660;DHT22;26753;45.544;9.232;2023-11-21T11:36:55;19.80;99.90
40660;DHT22;26753;45.544;9.232;2023-11-21T11:39:43;19.90;99.90
40660;DHT22;26753;45.544;9.232;2023-11-21T11:42:16;20.10;99.90
40660;DHT22;26753;45.544;9.232;2023-11-21T11:47:21;20.40;99.90
40660;DHT22;26753;45.544;9.232;2023-11-21T11:50:06;20.50;99.90
40660;DHT22;26753;45.544;9.232;2023-11-21T11:52:52;20.50;99.90
40660;DHT22;26753;45.544;9.232;2023-11-21T11:55:21;20.60;99.90
40660;DHT22;26753;45.544;9.232;2023-11-21T11:57:58;20.80;99.90
40660;DHT22;26753;45.544;9.232;2023-11-21T12:03:00;21.20;99.90
40660;DHT22;26753;45.544;9.232;2023-11-21T12:05:30;21.30;99.90
40660;DHT22;26753;45.544;9.232;2023-11-21T12:08:03;22.10;99.90
40660;DHT22;26753;45.544;9.232;2023-11-21T12:10:33;25.50;95.70
40660;DHT22;26753;45.544;9.232;2023-11-21T12:13:01;24.30;93.90
40660;DHT22;26753;45.544;9.232;2023-11-21T12:15:30;23.10;94.30
40660;DHT22;26753;45.544;9.232;2023-11-21T12:17:57;22.50;95.10
40660;DHT22;26753;45.544;9.232;2023-11-21T12:20:26;22.20;95.50
40660;DHT22;26753;45.544;9.232;2023-11-21T12:22:56;22.80;95.30
40660;DHT22;26753;45.544;9.232;2023-11-21T12:25:29;27.10;92.10
40660;DHT22;26753;45.544;9.232;2023-11-21T12:27:57;30.50;82.40
40660;DHT22;26753;45.544;9.232;2023-11-21T12:31:09;32.60;72.40
40660;DHT22;26753;45.544;9.232;2023-11-21T12:33:19;33.90;68.90
40660;DHT22;26753;45.544;9.232;2023-11-21T12:35:45;35.00;64.00
40660;DHT22;26753;45.544;9.232;2023-11-21T12:38:10;35.90;61.00
40660;DHT22;26753;45.544;9.232;2023-11-21T12:40:36;36.90;59.10
40660;DHT22;26753;45.544;9.232;2023-11-21T12:43:03;37.50;56.80
40660;DHT22;26753;45.544;9.232;2023-11-21T12:45:30;38.30;55.30
40660;DHT22;26753;45.544;9.232;2023-11-21T12:48:01;38.90;53.70
40660;DHT22;26753;45.544;9.232;2023-11-21T12:50:30;39.10;52.00
40660;DHT22;26753;45.544;9.232;2023-11-21T12:53:02;38.80;51.80
40660;DHT22;26753;45.544;9.232;2023-11-21T12:55:32;39.10;50.90
40660;DHT22;26753;45.544;9.232;2023-11-21T12:58:01;39.20;50.30
40660;DHT22;26753;45.544;9.232;2023-11-21T13:00:35;39.60;49.70
40660;DHT22;26753;45.544;9.232;2023-11-21T13:03:08;39.20;49.70
40660;DHT22;26753;45.544;9.232;2023-11-21T13:05:49;39.20;49.10
40660;DHT22;26753;45.544;9.232;2023-11-21T13:08:24;39.90;48.40
40660;DHT22;26753;45.544;9.232;2023-11-21T13:11:01;40.30;48.20
40660;DHT22;26753;45.544;9.232;2023-11-21T13:13:41;40.70;47.70
40660;DHT22;26753;45.544;9.232;2023-11-21T13:16:10;40.60;46.70
40660;DHT22;26753;45.544;9.232;2023-11-21T13:18:36;40.80;47.20
40660;DHT22;26753;45.544;9.232;2023-11-21T13:21:04;40.40;46.60
40660;DHT22;26753;45.544;9.232;2023-11-21T13:23:35;39.50;46.80
40660;DHT22;26753;45.544;9.232;2023-11-21T13:26:05;40.00;47.00
40660;DHT22;26753;45.544;9.232;2023-11-21T13:28:35;40.80;46.70
40660;DHT22;26753;45.544;9.232;2023-11-21T13:31:03;41.30;45.90
40660;DHT22;26753;45.544;9.232;2023-11-21T13:33:47;41.50;46.00
40660;DHT22;26753;45.544;9.232;2023-11-21T13:36:22;41.20;45.90
40660;DHT22;26753;45.544;9.232;2023-11-21T13:38:50;41.20;45.50
40660;DHT22;26753;45.544;9.232;2023-11-21T13:41:15;41.30;45.30
40660;DHT22;26753;45.544;9.232;2023-11-21T13:43:43;41.80;45.30
40660;DHT22;26753;45.544;9.232;2023-11-21T13:46:16;41.80;44.90
40660;DHT22;26753;45.544;9.232;2023-11-21T13:48:49;41.70;44.50
40660;DHT22;26753;45.544;9.232;2023-11-21T13:51:22;40.80;44.50
40660;DHT22;26753;45.544;9.232;2023-11-21T13:53:56;40.90;44.90
40660;DHT22;26753;45.544;9.232;2023-11-21T13:56:23;41.60;44.90
40660;DHT22;26753;45.544;9.232;2023-11-21T13:58:52;41.80;44.50
40660;DHT22;26753;45.544;9.232;2023-11-21T14:01:20;42.00;44.10
40660;DHT22;26753;45.544;9.232;2023-11-21T14:04:03;42.30;44.30
40660;DHT22;26753;45.544;9.232;2023-11-21T14:06:43;42.20;43.20
40660;DHT22;26753;45.544;9.232;2023-11-21T14:09:23;41.70;43.30
40660;DHT22;26753;45.544;9.232;2023-11-21T14:11:58;40.80;43.60
40660;DHT22;26753;45.544;9.232;2023-11-21T14:14:27;40.20;44.70
40660;DHT22;26753;45.544;9.232;2023-11-21T14:16:55;40.60;44.10
40660;DHT22;26753;45.544;9.232;2023-11-21T14:19:32;40.90;43.90
40660;DHT22;26753;45.544;9.232;2023-11-21T14:21:59;40.70;43.90
40660;DHT22;26753;45.544;9.232;2023-11-21T14:24:25;40.70;43.70
40660;DHT22;26753;45.544;9.232;2023-11-21T14:26:51;40.70;43.60
40660;DHT22;26753;45.544;9.232;2023-11-21T14:29:18;40.60;43.70
40660;DHT22;26753;45.544;9.232;2023-11-21T14:31:49;40.10;43.80
40660;DHT22;26753;45.544;9.232;2023-11-21T14:34:16;39.30;43.80
40660;DHT22;26753;45.544;9.232;2023-11-21T14:36:43;38.60;44.50
40660;DHT22;26753;45.544;9.232;2023-11-21T14:39:10;38.30;45.50
40660;DHT22;26753;45.544;9.232;2023-11-21T14:41:49;38.10;44.70
40660;DHT22;26753;45.544;9.232;2023-11-21T14:44:14;37.70;44.70
40660;DHT22;26753;45.544;9.232;2023-11-21T14:46:41;37.40;44.80
40660;DHT22;26753;45.544;9.232;2023-11-21T14:49:11;37.40;44.70
40660;DHT22;26753;45.544;9.232;2023-11-21T14:51:52;36.90;44.90
40660;DHT22;26753;45.544;9.232;2023-11-21T14:54:29;35.80;45.20
40660;DHT22;26753;45.544;9.232;2023-11-21T14:57:12;35.50;45.90
40660;DHT22;26753;45.544;9.232;2023-11-21T14:59:48;34.80;46.20
40660;DHT22;26753;45.544;9.232;2023-11-21T15:02:20;32.00;47.40
40660;DHT22;26753;45.544;9.232;2023-11-21T15:05:09;29.90;49.80
40660;DHT22;26753;45.544;9.232;2023-11-21T15:07:40;27.60;52.50
40660;DHT22;26753;45.544;9.232;2023-11-21T15:10:07;26.00;54.50
40660;DHT22;26753;45.544;9.232;2023-11-21T15:12:38;25.00;55.90
40660;DHT22;26753;45.544;9.232;2023-11-21T15:15:05;24.00;57.20
40660;DHT22;26753;45.544;9.232;2023-11-21T15:17:36;23.50;58.40
40660;DHT22;26753;45.544;9.232;2023-11-21T15:20:02;22.90;59.50
40660;DHT22;26753;45.544;9.232;2023-11-21T15:22:29;22.50;60.50
40660;DHT22;26753;45.544;9.232;2023-11-21T15:24:55;21.90;61.40
40660;DHT22;26753;45.544;9.232;2023-11-21T15:27:21;21.60;62.10
40660;DHT22;26753;45.544;9.232;2023-11-21T15:29:47;21.40;62.80
40660;DHT22;26753;45.544;9.232;2023-11-21T15:32:15;21.00;63.50
40660;DHT22;26753;45.544;9.232;2023-11-21T15:34:41;20.70;64.20
40660;DHT22;26753;45.544;9.232;2023-11-21T15:37:07;20.40;64.90
40660;DHT22;26753;45.544;9.232;2023-11-21T15:39:40;20.30;65.50
40660;DHT22;26753;45.544;9.232;2023-11-21T15:42:06;20.00;66.00
40660;DHT22;26753;45.544;9.232;2023-11-21T15:44:32;19.80;66.70
40660;DHT22;26753;45.544;9.232;2023-11-21T15:46:59;19.70;67.20
40660;DHT22;26753;45.544;9.232;2023-11-21T15:49:24;19.50;67.60
40660;DHT22;26753;45.544;9.232;2023-11-21T15:51:53;19.40;68.10
40660;DHT22;26753;45.544;9.232;2023-11-21T15:54:28;19.30;68.40
40660;DHT22;26753;45.544;9.232;2023-11-21T15:56:55;19.30;68.90
40660;DHT22;26753;45.544;9.232;2023-11-21T15:59:23;19.10;69.40
40660;DHT22;26753;45.544;9.232;2023-11-21T16:01:53;19.00;70.00
40660;DHT22;26753;45.544;9.232;2023-11-21T16:04:18;18.80;70.30
40660;DHT22;26753;45.544;9.232;2023-11-21T16:06:47;18.80;70.80
40660;DHT22;26753;45.544;9.232;2023-11-21T16:09:15;18.60;71.50
40660;DHT22;26753;45.544;9.232;2023-11-21T16:11:48;18.50;71.90
40660;DHT22;26753;45.544;9.232;2023-11-21T16:14:15;18.50;72.30
40660;DHT22;26753;45.544;9.232;2023-11-21T16:16:45;18.40;72.80
40660;DHT22;26753;45.544;9.232;2023-11-21T16:19:11;18.20;73.80
40660;DHT22;26753;45.544;9.232;2023-11-21T16:21:37;18.20;74.20
40660;DHT22;26753;45.544;9.232;2023-11-21T16:24:03;18.00;74.30
40660;DHT22;26753;45.544;9.232;2023-11-21T16:26:29;17.90;74.80
40660;DHT22;26753;45.544;9.232;2023-11-21T16:28:56;17.80;75.20
40660;DHT22;26753;45.544;9.232;2023-11-21T16:31:25;17.80;75.50
40660;DHT22;26753;45.544;9.232;2023-11-21T16:33:50;17.80;75.90
40660;DHT22;26753;45.544;9.232;2023-11-21T16:36:16;17.70;76.30